sensor_id;sensor_type;location;lat;lon;timestamp;P1;durP1;ratioP1;P2;durP2;ratioP2
14704;SDS011;7442;50.840;3.396;2023-02-05T00:02:32;1.67;;;1.40;;
14704;SDS011;7442;50.840;3.396;2023-02-05T00:05:18;1.87;;;1.00;;
14704;SDS011;7442;50.840;3.396;2023-02-05T00:08:04;1.20;;;1.10;;
14704;SDS011;7442;50.840;3.396;2023-02-05T00:10:51;1.20;;;1.10;;
14704;SDS011;7442;50.840;3.396;2023-02-05T00:13:38;1.40;;;1.30;;
14704;SDS011;7442;50.840;3.396;2023-02-05T00:16:25;1.47;;;1.37;;
14704;SDS011;7442;50.840;3.396;2023-02-05T00:19:12;1.42;;;1.20;;
14704;SDS011;7442;50.840;3.396;2023-02-05T00:21:58;1.42;;;1.17;;
14704;SDS011;7442;50.840;3.396;2023-02-05T00:24:44;0.80;;;0.80;;
14704;SDS011;7442;50.840;3.396;2023-02-05T00:27:31;1.10;;;1.00;;
14704;SDS011;7442;50.840;3.396;2023-02-05T00:30:18;1.00;;;0.90;;
14704;SDS011;7442;50.840;3.396;2023-02-05T00:33:04;1.40;;;1.30;;
14704;SDS011;7442;50.840;3.396;2023-02-05T00:35:51;1.20;;;1.07;;
14704;SDS011;7442;50.840;3.396;2023-02-05T00:38:37;1.40;;;1.27;;
14704;SDS011;7442;50.840;3.396;2023-02-05T00:41:26;1.85;;;0.95;;
14704;SDS011;7442;50.840;3.396;2023-02-05T00:44:12;1.87;;;1.20;;
14704;SDS011;7442;50.840;3.396;2023-02-05T00:46:59;1.65;;;1.12;;
14704;SDS011;7442;50.840;3.396;2023-02-05T00:49:45;1.10;;;1.00;;
14704;SDS011;7442;50.840;3.396;2023-02-05T00:52:32;1.05;;;1.00;;
14704;SDS011;7442;50.840;3.396;2023-02-05T00:55:18;1.87;;;1.20;;
14704;SDS011;7442;50.840;3.396;2023-02-05T00:58:05;1.60;;;1.20;;
14704;SDS011;7442;50.840;3.396;2023-02-05T01:00:51;1.15;;;1.05;;
14704;SDS011;7442;50.840;3.396;2023-02-05T01:03:37;2.00;;;1.10;;
14704;SDS011;7442;50.840;3.396;2023-02-05T01:06:24;1.17;;;1.10;;
14704;SDS011;7442;50.840;3.396;2023-02-05T01:09:10;1.15;;;1.02;;
14704;SDS011;7442;50.840;3.396;2023-02-05T01:11:57;1.20;;;1.10;;
14704;SDS011;7442;50.840;3.396;2023-02-05T01:14:44;0.78;;;0.78;;
14704;SDS011;7442;50.840;3.396;2023-02-05T01:17:38;1.20;;;1.10;;
14704;SDS011;7442;50.840;3.396;2023-02-05T01:20:24;0.95;;;0.88;;
14704;SDS011;7442;50.840;3.396;2023-02-05T01:23:11;1.10;;;1.00;;
14704;SDS011;7442;50.840;3.396;2023-02-05T01:25:58;1.20;;;1.10;;
14704;SDS011;7442;50.840;3.396;2023-02-05T01:28:44;1.10;;;0.82;;
14704;SDS011;7442;50.840;3.396;2023-02-05T01:31:32;1.85;;;1.10;;
14704;SDS011;7442;50.840;3.396;2023-02-05T01:34:18;1.12;;;1.00;;
14704;SDS011;7442;50.840;3.396;2023-02-05T01:37:04;0.95;;;0.85;;
14704;SDS011;7442;50.840;3.396;2023-02-05T01:39:50;1.10;;;1.00;;
14704;SDS011;7442;50.840;3.396;2023-02-05T01:42:37;1.02;;;1.00;;
14704;SDS011;7442;50.840;3.396;2023-02-05T01:48:13;1.02;;;0.93;;
14704;SDS011;7442;50.840;3.396;2023-02-05T01:51:00;1.27;;;1.17;;
14704;SDS011;7442;50.840;3.396;2023-02-05T01:53:54;1.30;;;1.00;;
14704;SDS011;7442;50.840;3.396;2023-02-05T01:56:43;1.40;;;1.20;;
14704;SDS011;7442;50.840;3.396;2023-02-05T01:59:31;1.52;;;1.00;;
14704;SDS011;7442;50.840;3.396;2023-02-05T02:02:20;1.12;;;1.02;;
14704;SDS011;7442;50.840;3.396;2023-02-05T02:05:12;1.02;;;0.93;;
14704;SDS011;7442;50.840;3.396;2023-02-05T02:07:59;1.40;;;1.25;;
14704;SDS011;7442;50.840;3.396;2023-02-05T02:10:47;1.17;;;1.07;;
14704;SDS011;7442;50.840;3.396;2023-02-05T02:13:39;1.02;;;0.98;;
14704;SDS011;7442;50.840;3.396;2023-02-05T02:16:26;0.95;;;0.90;;
14704;SDS011;7442;50.840;3.396;2023-02-05T02:19:17;1.10;;;1.00;;
14704;SDS011;7442;50.840;3.396;2023-02-05T02:31:33;0.85;;;0.85;;
14704;SDS011;7442;50.840;3.396;2023-02-05T02:34:17;1.20;;;1.00;;
14704;SDS011;7442;50.840;3.396;2023-02-05T02:37:17;1.02;;;0.82;;
14704;SDS011;7442;50.840;3.396;2023-02-05T02:40:07;1.10;;;1.00;;
14704;SDS011;7442;50.840;3.396;2023-02-05T02:46:02;1.05;;;0.95;;
14704;SDS011;7442;50.840;3.396;2023-02-05T02:48:45;1.47;;;1.12;;
14704;SDS011;7442;50.840;3.396;2023-02-05T02:51:34;1.22;;;1.12;;
14704;SDS011;7442;50.840;3.396;2023-02-05T02:54:23;1.10;;;0.93;;
14704;SDS011;7442;50.840;3.396;2023-02-05T02:57:11;1.32;;;1.00;;
14704;SDS011;7442;50.840;3.396;2023-02-05T03:00:03;1.52;;;0.78;;
14704;SDS011;7442;50.840;3.396;2023-02-05T03:02:51;1.57;;;1.10;;
14704;SDS011;7442;50.840;3.396;2023-02-05T03:05:40;1.12;;;1.02;;
14704;SDS011;7442;50.840;3.396;2023-02-05T03:08:41;1.80;;;1.22;;
14704;SDS011;7442;50.840;3.396;2023-02-05T03:11:42;1.65;;;1.00;;
14704;SDS011;7442;50.840;3.396;2023-02-05T03:14:29;1.67;;;1.05;;
14704;SDS011;7442;50.840;3.396;2023-02-05T03:17:15;1.12;;;1.02;;
14704;SDS011;7442;50.840;3.396;2023-02-05T03:20:07;2.55;;;1.15;;
14704;SDS011;7442;50.840;3.396;2023-02-05T03:22:55;1.52;;;1.15;;
14704;SDS011;7442;50.840;3.396;2023-02-05T03:25:41;1.35;;;1.05;;
14704;SDS011;7442;50.840;3.396;2023-02-05T03:28:28;1.60;;;1.15;;
14704;SDS011;7442;50.840;3.396;2023-02-05T03:37:15;1.17;;;1.07;;
14704;SDS011;7442;50.840;3.396;2023-02-05T03:40:15;1.37;;;1.20;;
14704;SDS011;7442;50.840;3.396;2023-02-05T03:43:11;1.20;;;1.10;;
14704;SDS011;7442;50.840;3.396;2023-02-05T03:52:12;1.12;;;1.02;;
14704;SDS011;7442;50.840;3.396;2023-02-05T03:55:12;1.05;;;0.95;;
14704;SDS011;7442;50.840;3.396;2023-02-05T04:00:55;1.52;;;1.20;;
14704;SDS011;7442;50.840;3.396;2023-02-05T04:03:41;1.35;;;1.25;;
14704;SDS011;7442;50.840;3.396;2023-02-05T04:06:28;1.12;;;0.93;;
14704;SDS011;7442;50.840;3.396;2023-02-05T04:09:15;1.42;;;0.95;;
14704;SDS011;7442;50.840;3.396;2023-02-05T04:12:01;1.20;;;1.10;;
14704;SDS011;7442;50.840;3.396;2023-02-05T04:14:47;1.57;;;1.32;;
14704;SDS011;7442;50.840;3.396;2023-02-05T04:17:34;1.45;;;1.20;;
14704;SDS011;7442;50.840;3.396;2023-02-05T04:20:21;1.17;;;1.05;;
14704;SDS011;7442;50.840;3.396;2023-02-05T04:23:08;1.02;;;0.93;;
14704;SDS011;7442;50.840;3.396;2023-02-05T04:25:55;1.35;;;1.10;;
14704;SDS011;7442;50.840;3.396;2023-02-05T04:28:41;1.07;;;0.90;;
14704;SDS011;7442;50.840;3.396;2023-02-05T04:31:27;0.88;;;0.80;;
14704;SDS011;7442;50.840;3.396;2023-02-05T04:34:14;1.22;;;0.98;;
14704;SDS011;7442;50.840;3.396;2023-02-05T04:37:01;1.05;;;0.95;;
14704;SDS011;7442;50.840;3.396;2023-02-05T04:39:47;1.20;;;0.98;;
14704;SDS011;7442;50.840;3.396;2023-02-05T04:42:34;1.30;;;1.12;;
14704;SDS011;7442;50.840;3.396;2023-02-05T04:45:20;1.02;;;0.90;;
14704;SDS011;7442;50.840;3.396;2023-02-05T04:48:07;1.10;;;1.00;;
14704;SDS011;7442;50.840;3.396;2023-02-05T04:50:54;2.30;;;1.20;;
14704;SDS011;7442;50.840;3.396;2023-02-05T04:53:40;1.15;;;1.15;;
14704;SDS011;7442;50.840;3.396;2023-02-05T04:56:26;1.10;;;1.00;;
14704;SDS011;7442;50.840;3.396;2023-02-05T04:59:13;1.60;;;1.32;;
14704;SDS011;7442;50.840;3.396;2023-02-05T05:01:59;1.55;;;1.27;;
14704;SDS011;7442;50.840;3.396;2023-02-05T05:04:46;1.47;;;1.25;;
14704;SDS011;7442;50.840;3.396;2023-02-05T05:07:32;1.32;;;1.22;;
14704;SDS011;7442;50.840;3.396;2023-02-05T05:10:19;1.20;;;1.10;;
14704;SDS011;7442;50.840;3.396;2023-02-05T05:13:05;1.72;;;1.20;;
14704;SDS011;7442;50.840;3.396;2023-02-05T05:15:52;1.55;;;1.27;;
14704;SDS011;7442;50.840;3.396;2023-02-05T05:18:39;1.50;;;1.25;;
14704;SDS011;7442;50.840;3.396;2023-02-05T05:21:26;8.00;;;1.20;;
14704;SDS011;7442;50.840;3.396;2023-02-05T05:24:12;1.40;;;1.20;;
14704;SDS011;7442;50.840;3.396;2023-02-05T05:27:00;2.08;;;1.20;;
14704;SDS011;7442;50.840;3.396;2023-02-05T05:29:46;1.62;;;1.10;;
14704;SDS011;7442;50.840;3.396;2023-02-05T05:32:33;2.25;;;1.10;;
14704;SDS011;7442;50.840;3.396;2023-02-05T05:35:20;1.25;;;1.00;;
14704;SDS011;7442;50.840;3.396;2023-02-05T05:38:06;1.27;;;1.12;;
14704;SDS011;7442;50.840;3.396;2023-02-05T05:40:53;1.40;;;0.98;;
14704;SDS011;7442;50.840;3.396;2023-02-05T05:43:57;1.22;;;1.12;;
14704;SDS011;7442;50.840;3.396;2023-02-05T05:46:43;1.27;;;1.17;;
14704;SDS011;7442;50.840;3.396;2023-02-05T05:49:30;1.52;;;1.10;;
14704;SDS011;7442;50.840;3.396;2023-02-05T05:52:16;1.00;;;1.00;;
14704;SDS011;7442;50.840;3.396;2023-02-05T05:55:02;1.42;;;1.25;;
14704;SDS011;7442;50.840;3.396;2023-02-05T05:57:49;1.30;;;1.20;;
14704;SDS011;7442;50.840;3.396;2023-02-05T06:00:36;2.33;;;1.40;;
14704;SDS011;7442;50.840;3.396;2023-02-05T06:03:27;1.95;;;1.22;;
14704;SDS011;7442;50.840;3.396;2023-02-05T06:06:14;1.20;;;1.10;;
14704;SDS011;7442;50.840;3.396;2023-02-05T06:09:00;1.42;;;1.20;;
14704;SDS011;7442;50.840;3.396;2023-02-05T06:11:47;1.30;;;1.20;;
14704;SDS011;7442;50.840;3.396;2023-02-05T06:14:33;1.20;;;1.10;;
14704;SDS011;7442;50.840;3.396;2023-02-05T06:17:20;1.20;;;1.10;;
14704;SDS011;7442;50.840;3.396;2023-02-05T06:20:07;2.40;;;1.17;;
14704;SDS011;7442;50.840;3.396;2023-02-05T06:22:54;1.55;;;1.07;;
14704;SDS011;7442;50.840;3.396;2023-02-05T06:25:40;1.45;;;1.00;;
14704;SDS011;7442;50.840;3.396;2023-02-05T06:28:26;1.35;;;1.20;;
14704;SDS011;7442;50.840;3.396;2023-02-05T06:31:13;1.77;;;1.02;;
14704;SDS011;7442;50.840;3.396;2023-02-05T06:34:01;1.70;;;1.15;;
14704;SDS011;7442;50.840;3.396;2023-02-05T06:36:47;1.10;;;0.90;;
14704;SDS011;7442;50.840;3.396;2023-02-05T06:39:33;1.47;;;1.05;;
14704;SDS011;7442;50.840;3.396;2023-02-05T06:42:22;1.17;;;1.07;;
14704;SDS011;7442;50.840;3.396;2023-02-05T06:45:09;1.00;;;0.90;;
14704;SDS011;7442;50.840;3.396;2023-02-05T06:47:56;1.65;;;1.22;;
14704;SDS011;7442;50.840;3.396;2023-02-05T06:50:42;1.72;;;1.20;;
14704;SDS011;7442;50.840;3.396;2023-02-05T06:53:28;1.75;;;1.27;;
14704;SDS011;7442;50.840;3.396;2023-02-05T06:56:15;2.15;;;1.20;;
14704;SDS011;7442;50.840;3.396;2023-02-05T06:59:01;1.72;;;1.07;;
14704;SDS011;7442;50.840;3.396;2023-02-05T07:01:48;2.80;;;1.17;;
14704;SDS011;7442;50.840;3.396;2023-02-05T07:04:34;2.27;;;1.00;;
14704;SDS011;7442;50.840;3.396;2023-02-05T07:07:21;2.27;;;1.47;;
14704;SDS011;7442;50.840;3.396;2023-02-05T07:10:08;2.62;;;1.10;;
14704;SDS011;7442;50.840;3.396;2023-02-05T07:12:54;1.98;;;1.12;;
14704;SDS011;7442;50.840;3.396;2023-02-05T07:15:41;3.60;;;1.45;;
14704;SDS011;7442;50.840;3.396;2023-02-05T07:18:28;2.22;;;1.42;;
14704;SDS011;7442;50.840;3.396;2023-02-05T07:21:15;2.22;;;1.20;;
14704;SDS011;7442;50.840;3.396;2023-02-05T07:24:01;2.92;;;1.25;;
14704;SDS011;7442;50.840;3.396;2023-02-05T07:26:48;1.80;;;1.12;;
14704;SDS011;7442;50.840;3.396;2023-02-05T07:29:34;3.47;;;1.60;;
14704;SDS011;7442;50.840;3.396;2023-02-05T07:32:21;2.42;;;1.07;;
14704;SDS011;7442;50.840;3.396;2023-02-05T07:35:07;2.92;;;1.40;;
14704;SDS011;7442;50.840;3.396;2023-02-05T07:37:53;1.67;;;1.22;;
14704;SDS011;7442;50.840;3.396;2023-02-05T07:40:41;2.22;;;1.12;;
14704;SDS011;7442;50.840;3.396;2023-02-05T07:43:27;2.58;;;1.15;;
14704;SDS011;7442;50.840;3.396;2023-02-05T07:46:13;3.62;;;1.50;;
14704;SDS011;7442;50.840;3.396;2023-02-05T07:49:00;1.80;;;1.00;;
14704;SDS011;7442;50.840;3.396;2023-02-05T07:51:48;1.30;;;1.10;;
14704;SDS011;7442;50.840;3.396;2023-02-05T07:54:34;2.42;;;1.40;;
14704;SDS011;7442;50.840;3.396;2023-02-05T07:57:20;1.72;;;1.12;;
14704;SDS011;7442;50.840;3.396;2023-02-05T08:00:08;2.90;;;1.50;;
14704;SDS011;7442;50.840;3.396;2023-02-05T08:02:55;1.65;;;1.05;;
14704;SDS011;7442;50.840;3.396;2023-02-05T08:05:41;2.70;;;1.27;;
14704;SDS011;7442;50.840;3.396;2023-02-05T08:08:28;3.15;;;1.20;;
14704;SDS011;7442;50.840;3.396;2023-02-05T08:11:14;3.05;;;1.30;;
14704;SDS011;7442;50.840;3.396;2023-02-05T08:14:02;3.00;;;1.45;;
14704;SDS011;7442;50.840;3.396;2023-02-05T08:16:48;1.82;;;1.25;;
14704;SDS011;7442;50.840;3.396;2023-02-05T08:19:35;2.00;;;1.40;;
14704;SDS011;7442;50.840;3.396;2023-02-05T08:22:21;3.30;;;1.37;;
14704;SDS011;7442;50.840;3.396;2023-02-05T08:25:10;2.80;;;1.32;;
14704;SDS011;7442;50.840;3.396;2023-02-05T08:27:58;3.27;;;1.25;;
14704;SDS011;7442;50.840;3.396;2023-02-05T08:30:44;2.20;;;1.20;;
14704;SDS011;7442;50.840;3.396;2023-02-05T08:33:30;2.27;;;1.22;;
14704;SDS011;7442;50.840;3.396;2023-02-05T08:36:17;3.30;;;1.52;;
14704;SDS011;7442;50.840;3.396;2023-02-05T08:39:03;3.22;;;1.42;;
14704;SDS011;7442;50.840;3.396;2023-02-05T08:41:50;3.20;;;1.60;;
14704;SDS011;7442;50.840;3.396;2023-02-05T08:44:37;2.25;;;1.12;;
14704;SDS011;7442;50.840;3.396;2023-02-05T08:47:24;3.08;;;1.30;;
14704;SDS011;7442;50.840;3.396;2023-02-05T08:50:11;4.55;;;1.72;;
14704;SDS011;7442;50.840;3.396;2023-02-05T08:52:57;2.95;;;1.55;;
14704;SDS011;7442;50.840;3.396;2023-02-05T08:55:44;4.58;;;1.62;;
14704;SDS011;7442;50.840;3.396;2023-02-05T08:58:30;3.47;;;1.35;;
14704;SDS011;7442;50.840;3.396;2023-02-05T09:01:17;3.45;;;1.50;;
14704;SDS011;7442;50.840;3.396;2023-02-05T09:04:04;3.00;;;1.47;;
14704;SDS011;7442;50.840;3.396;2023-02-05T09:06:51;3.58;;;1.52;;
14704;SDS011;7442;50.840;3.396;2023-02-05T09:09:37;3.00;;;1.55;;
14704;SDS011;7442;50.840;3.396;2023-02-05T09:12:31;5.12;;;1.60;;
14704;SDS011;7442;50.840;3.396;2023-02-05T09:15:17;2.85;;;1.52;;
14704;SDS011;7442;50.840;3.396;2023-02-05T09:18:04;2.95;;;1.77;;
14704;SDS011;7442;50.840;3.396;2023-02-05T09:20:50;3.22;;;1.45;;
14704;SDS011;7442;50.840;3.396;2023-02-05T09:23:38;3.77;;;1.25;;
14704;SDS011;7442;50.840;3.396;2023-02-05T09:26:24;4.03;;;1.80;;
14704;SDS011;7442;50.840;3.396;2023-02-05T09:29:11;4.53;;;1.70;;
14704;SDS011;7442;50.840;3.396;2023-02-05T09:31:57;3.85;;;1.55;;
14704;SDS011;7442;50.840;3.396;2023-02-05T09:34:44;2.08;;;1.27;;
14704;SDS011;7442;50.840;3.396;2023-02-05T09:37:32;4.45;;;1.47;;
14704;SDS011;7442;50.840;3.396;2023-02-05T09:40:19;3.95;;;1.60;;
14704;SDS011;7442;50.840;3.396;2023-02-05T09:49:46;3.37;;;1.50;;
14704;SDS011;7442;50.840;3.396;2023-02-05T09:52:41;4.15;;;1.62;;
14704;SDS011;7442;50.840;3.396;2023-02-05T09:55:29;4.25;;;1.92;;
14704;SDS011;7442;50.840;3.396;2023-02-05T09:58:19;3.85;;;1.60;;
14704;SDS011;7442;50.840;3.396;2023-02-05T10:01:17;2.55;;;1.50;;
14704;SDS011;7442;50.840;3.396;2023-02-05T10:04:09;4.85;;;1.57;;
14704;SDS011;7442;50.840;3.396;2023-02-05T10:13:23;3.47;;;1.75;;
14704;SDS011;7442;50.840;3.396;2023-02-05T10:19:29;4.42;;;1.85;;
14704;SDS011;7442;50.840;3.396;2023-02-05T10:34:59;3.80;;;1.67;;
14704;SDS011;7442;50.840;3.396;2023-02-05T10:37:52;4.58;;;1.98;;
14704;SDS011;7442;50.840;3.396;2023-02-05T10:40:39;3.77;;;1.75;;
14704;SDS011;7442;50.840;3.396;2023-02-05T10:43:37;5.15;;;1.87;;
14704;SDS011;7442;50.840;3.396;2023-02-05T10:46:37;5.30;;;2.00;;
14704;SDS011;7442;50.840;3.396;2023-02-05T10:49:39;4.65;;;2.15;;
14704;SDS011;7442;50.840;3.396;2023-02-05T10:52:36;6.22;;;2.00;;
14704;SDS011;7442;50.840;3.396;2023-02-05T10:55:23;6.45;;;1.80;;
14704;SDS011;7442;50.840;3.396;2023-02-05T10:58:20;4.65;;;1.98;;
14704;SDS011;7442;50.840;3.396;2023-02-05T11:01:05;3.15;;;1.65;;
14704;SDS011;7442;50.840;3.396;2023-02-05T11:03:57;6.78;;;1.77;;
14704;SDS011;7442;50.840;3.396;2023-02-05T11:06:51;4.83;;;2.05;;
14704;SDS011;7442;50.840;3.396;2023-02-05T11:09:38;5.12;;;1.72;;
14704;SDS011;7442;50.840;3.396;2023-02-05T11:12:31;4.50;;;2.10;;
14704;SDS011;7442;50.840;3.396;2023-02-05T11:15:20;6.60;;;2.08;;
14704;SDS011;7442;50.840;3.396;2023-02-05T11:18:09;5.00;;;1.87;;
14704;SDS011;7442;50.840;3.396;2023-02-05T11:20:57;4.42;;;2.30;;
14704;SDS011;7442;50.840;3.396;2023-02-05T11:23:55;4.53;;;1.82;;
14704;SDS011;7442;50.840;3.396;2023-02-05T11:26:42;5.05;;;1.80;;
14704;SDS011;7442;50.840;3.396;2023-02-05T11:29:29;5.67;;;1.85;;
14704;SDS011;7442;50.840;3.396;2023-02-05T11:32:19;6.60;;;2.52;;
14704;SDS011;7442;50.840;3.396;2023-02-05T11:38:29;5.47;;;1.90;;
14704;SDS011;7442;50.840;3.396;2023-02-05T11:41:52;6.08;;;2.40;;
14704;SDS011;7442;50.840;3.396;2023-02-05T11:44:35;5.55;;;2.20;;
14704;SDS011;7442;50.840;3.396;2023-02-05T11:47:29;6.97;;;2.30;;
14704;SDS011;7442;50.840;3.396;2023-02-05T11:50:23;4.87;;;2.12;;
14704;SDS011;7442;50.840;3.396;2023-02-05T11:53:18;4.03;;;2.00;;
14704;SDS011;7442;50.840;3.396;2023-02-05T11:56:07;5.33;;;2.05;;
14704;SDS011;7442;50.840;3.396;2023-02-05T11:59:02;6.00;;;2.00;;
14704;SDS011;7442;50.840;3.396;2023-02-05T12:01:50;4.53;;;2.03;;
14704;SDS011;7442;50.840;3.396;2023-02-05T12:04:43;5.40;;;2.58;;
14704;SDS011;7442;50.840;3.396;2023-02-05T12:13:55;5.30;;;2.10;;
14704;SDS011;7442;50.840;3.396;2023-02-05T12:19:58;7.95;;;2.50;;
14704;SDS011;7442;50.840;3.396;2023-02-05T12:23:26;5.53;;;1.90;;
14704;SDS011;7442;50.840;3.396;2023-02-05T12:26:31;5.42;;;2.10;;
14704;SDS011;7442;50.840;3.396;2023-02-05T12:29:46;6.53;;;2.42;;
14704;SDS011;7442;50.840;3.396;2023-02-05T12:32:52;5.92;;;2.50;;
14704;SDS011;7442;50.840;3.396;2023-02-05T12:39:06;6.05;;;2.20;;
14704;SDS011;7442;50.840;3.396;2023-02-05T12:45:06;6.70;;;2.40;;
14704;SDS011;7442;50.840;3.396;2023-02-05T12:51:21;5.60;;;2.30;;
14704;SDS011;7442;50.840;3.396;2023-02-05T12:58:08;7.47;;;2.33;;
14704;SDS011;7442;50.840;3.396;2023-02-05T13:00:46;4.97;;;2.17;;
14704;SDS011;7442;50.840;3.396;2023-02-05T13:03:34;5.20;;;1.80;;
14704;SDS011;7442;50.840;3.396;2023-02-05T13:06:32;5.33;;;1.95;;
14704;SDS011;7442;50.840;3.396;2023-02-05T13:09:47;7.37;;;2.17;;
14704;SDS011;7442;50.840;3.396;2023-02-05T13:12:19;6.30;;;2.20;;
14704;SDS011;7442;50.840;3.396;2023-02-05T13:15:18;4.70;;;2.27;;
14704;SDS011;7442;50.840;3.396;2023-02-05T13:18:21;5.90;;;2.20;;
14704;SDS011;7442;50.840;3.396;2023-02-05T13:21:18;4.72;;;2.00;;
14704;SDS011;7442;50.840;3.396;2023-02-05T13:24:25;5.47;;;2.05;;
14704;SDS011;7442;50.840;3.396;2023-02-05T13:27:45;4.90;;;1.98;;
14704;SDS011;7442;50.840;3.396;2023-02-05T13:30:55;7.20;;;2.60;;
14704;SDS011;7442;50.840;3.396;2023-02-05T13:33:44;4.85;;;2.00;;
14704;SDS011;7442;50.840;3.396;2023-02-05T13:36:36;4.95;;;2.05;;
14704;SDS011;7442;50.840;3.396;2023-02-05T13:43:29;6.53;;;2.35;;
14704;SDS011;7442;50.840;3.396;2023-02-05T13:51:59;6.85;;;2.27;;
14704;SDS011;7442;50.840;3.396;2023-02-05T13:54:53;7.45;;;2.25;;
14704;SDS011;7442;50.840;3.396;2023-02-05T13:58:04;5.37;;;2.75;;
14704;SDS011;7442;50.840;3.396;2023-02-05T14:01:02;5.55;;;2.15;;
14704;SDS011;7442;50.840;3.396;2023-02-05T14:03:54;4.58;;;2.02;;
14704;SDS011;7442;50.840;3.396;2023-02-05T14:06:43;6.83;;;2.50;;
14704;SDS011;7442;50.840;3.396;2023-02-05T14:12:29;4.12;;;2.08;;
14704;SDS011;7442;50.840;3.396;2023-02-05T14:18:11;7.80;;;2.50;;
14704;SDS011;7442;50.840;3.396;2023-02-05T14:20:59;5.33;;;2.17;;
14704;SDS011;7442;50.840;3.396;2023-02-05T14:26:50;5.87;;;2.20;;
14704;SDS011;7442;50.840;3.396;2023-02-05T14:29:46;5.85;;;2.25;;
14704;SDS011;7442;50.840;3.396;2023-02-05T14:33:24;5.42;;;2.00;;
14704;SDS011;7442;50.840;3.396;2023-02-05T14:35:30;4.55;;;1.98;;
14704;SDS011;7442;50.840;3.396;2023-02-05T14:38:23;5.47;;;2.35;;
14704;SDS011;7442;50.840;3.396;2023-02-05T14:41:14;5.75;;;2.10;;
14704;SDS011;7442;50.840;3.396;2023-02-05T14:47:20;4.42;;;1.82;;
14704;SDS011;7442;50.840;3.396;2023-02-05T14:50:21;4.55;;;2.33;;
14704;SDS011;7442;50.840;3.396;2023-02-05T14:53:19;5.50;;;2.25;;
14704;SDS011;7442;50.840;3.396;2023-02-05T14:56:20;5.45;;;2.30;;
14704;SDS011;7442;50.840;3.396;2023-02-05T14:59:00;5.00;;;2.02;;
14704;SDS011;7442;50.840;3.396;2023-02-05T15:01:49;6.17;;;2.00;;
14704;SDS011;7442;50.840;3.396;2023-02-05T15:04:44;5.40;;;2.10;;
14704;SDS011;7442;50.840;3.396;2023-02-05T15:07:33;7.05;;;2.22;;
14704;SDS011;7442;50.840;3.396;2023-02-05T15:10:22;6.20;;;2.27;;
14704;SDS011;7442;50.840;3.396;2023-02-05T15:13:11;6.58;;;2.40;;
14704;SDS011;7442;50.840;3.396;2023-02-05T15:19:00;5.62;;;2.37;;
14704;SDS011;7442;50.840;3.396;2023-02-05T15:21:50;5.75;;;2.22;;
14704;SDS011;7442;50.840;3.396;2023-02-05T15:24:36;6.08;;;2.22;;
14704;SDS011;7442;50.840;3.396;2023-02-05T15:27:43;5.28;;;2.27;;
14704;SDS011;7442;50.840;3.396;2023-02-05T15:30:59;4.75;;;2.02;;
14704;SDS011;7442;50.840;3.396;2023-02-05T15:33:31;4.42;;;1.92;;
14704;SDS011;7442;50.840;3.396;2023-02-05T15:36:24;5.15;;;2.02;;
14704;SDS011;7442;50.840;3.396;2023-02-05T15:39:18;4.92;;;2.25;;
14704;SDS011;7442;50.840;3.396;2023-02-05T15:42:27;6.15;;;2.08;;
14704;SDS011;7442;50.840;3.396;2023-02-05T15:45:28;3.98;;;2.22;;
14704;SDS011;7442;50.840;3.396;2023-02-05T15:48:24;6.97;;;2.25;;
14704;SDS011;7442;50.840;3.396;2023-02-05T15:51:26;4.65;;;2.22;;
14704;SDS011;7442;50.840;3.396;2023-02-05T15:54:16;5.00;;;2.10;;
14704;SDS011;7442;50.840;3.396;2023-02-05T15:57:04;4.78;;;2.40;;
14704;SDS011;7442;50.840;3.396;2023-02-05T15:59:54;3.83;;;2.10;;
14704;SDS011;7442;50.840;3.396;2023-02-05T16:02:43;5.55;;;2.12;;
14704;SDS011;7442;50.840;3.396;2023-02-05T16:05:31;4.35;;;1.82;;
14704;SDS011;7442;50.840;3.396;2023-02-05T16:08:18;6.08;;;1.82;;
14704;SDS011;7442;50.840;3.396;2023-02-05T16:11:07;4.65;;;1.80;;
14704;SDS011;7442;50.840;3.396;2023-02-05T16:14:13;5.47;;;2.02;;
14704;SDS011;7442;50.840;3.396;2023-02-05T16:17:06;3.55;;;2.00;;
14704;SDS011;7442;50.840;3.396;2023-02-05T16:20:20;4.65;;;2.08;;
14704;SDS011;7442;50.840;3.396;2023-02-05T16:23:06;4.07;;;2.13;;
14704;SDS011;7442;50.840;3.396;2023-02-05T16:26:03;3.87;;;2.12;;
14704;SDS011;7442;50.840;3.396;2023-02-05T16:28:47;7.22;;;2.22;;
14704;SDS011;7442;50.840;3.396;2023-02-05T16:31:38;6.03;;;2.40;;
14704;SDS011;7442;50.840;3.396;2023-02-05T16:34:25;3.45;;;1.70;;
14704;SDS011;7442;50.840;3.396;2023-02-05T16:37:14;5.47;;;2.02;;
14704;SDS011;7442;50.840;3.396;2023-02-05T16:40:02;5.47;;;2.33;;
14704;SDS011;7442;50.840;3.396;2023-02-05T16:42:52;6.87;;;2.30;;
14704;SDS011;7442;50.840;3.396;2023-02-05T16:45:38;4.35;;;2.10;;
14704;SDS011;7442;50.840;3.396;2023-02-05T16:48:26;5.95;;;2.20;;
14704;SDS011;7442;50.840;3.396;2023-02-05T16:51:27;5.17;;;2.02;;
14704;SDS011;7442;50.840;3.396;2023-02-05T16:54:26;7.12;;;2.47;;
14704;SDS011;7442;50.840;3.396;2023-02-05T16:57:14;5.75;;;2.37;;
14704;SDS011;7442;50.840;3.396;2023-02-05T17:00:38;5.28;;;2.25;;
14704;SDS011;7442;50.840;3.396;2023-02-05T17:03:12;6.20;;;2.12;;
14704;SDS011;7442;50.840;3.396;2023-02-05T17:06:03;5.00;;;2.47;;
14704;SDS011;7442;50.840;3.396;2023-02-05T17:08:52;3.80;;;2.08;;
14704;SDS011;7442;50.840;3.396;2023-02-05T17:11:40;4.53;;;1.87;;
14704;SDS011;7442;50.840;3.396;2023-02-05T17:14:28;6.20;;;2.72;;
14704;SDS011;7442;50.840;3.396;2023-02-05T17:17:19;4.58;;;2.10;;
14704;SDS011;7442;50.840;3.396;2023-02-05T17:23:06;4.42;;;2.10;;
14704;SDS011;7442;50.840;3.396;2023-02-05T17:25:53;5.90;;;2.20;;
14704;SDS011;7442;50.840;3.396;2023-02-05T17:28:40;4.70;;;2.35;;
14704;SDS011;7442;50.840;3.396;2023-02-05T17:31:35;4.42;;;2.17;;
14704;SDS011;7442;50.840;3.396;2023-02-05T17:34:19;5.75;;;2.45;;
14704;SDS011;7442;50.840;3.396;2023-02-05T17:37:06;6.17;;;2.52;;
14704;SDS011;7442;50.840;3.396;2023-02-05T17:39:53;4.65;;;2.12;;
14704;SDS011;7442;50.840;3.396;2023-02-05T17:42:41;4.30;;;2.20;;
14704;SDS011;7442;50.840;3.396;2023-02-05T17:45:32;5.45;;;2.00;;
14704;SDS011;7442;50.840;3.396;2023-02-05T17:48:20;5.92;;;2.05;;
14704;SDS011;7442;50.840;3.396;2023-02-05T17:51:09;7.10;;;2.45;;
14704;SDS011;7442;50.840;3.396;2023-02-05T17:56:48;4.60;;;2.15;;
14704;SDS011;7442;50.840;3.396;2023-02-05T17:59:47;3.65;;;1.95;;
14704;SDS011;7442;50.840;3.396;2023-02-05T18:02:27;4.95;;;2.12;;
14704;SDS011;7442;50.840;3.396;2023-02-05T18:05:13;5.30;;;2.17;;
14704;SDS011;7442;50.840;3.396;2023-02-05T18:08:00;6.60;;;2.25;;
14704;SDS011;7442;50.840;3.396;2023-02-05T18:10:48;4.67;;;2.12;;
14704;SDS011;7442;50.840;3.396;2023-02-05T18:13:35;5.00;;;2.08;;
14704;SDS011;7442;50.840;3.396;2023-02-05T18:16:21;4.92;;;2.08;;
14704;SDS011;7442;50.840;3.396;2023-02-05T18:19:08;5.45;;;2.30;;
14704;SDS011;7442;50.840;3.396;2023-02-05T18:21:54;3.67;;;2.22;;
14704;SDS011;7442;50.840;3.396;2023-02-05T18:24:40;5.03;;;2.47;;
14704;SDS011;7442;50.840;3.396;2023-02-05T18:27:27;7.30;;;2.60;;
14704;SDS011;7442;50.840;3.396;2023-02-05T18:30:14;5.25;;;2.47;;
14704;SDS011;7442;50.840;3.396;2023-02-05T18:33:01;4.85;;;2.22;;
14704;SDS011;7442;50.840;3.396;2023-02-05T18:35:48;5.80;;;2.20;;
14704;SDS011;7442;50.840;3.396;2023-02-05T18:38:34;6.70;;;2.47;;
14704;SDS011;7442;50.840;3.396;2023-02-05T18:41:21;5.83;;;2.50;;
14704;SDS011;7442;50.840;3.396;2023-02-05T18:44:10;6.00;;;2.58;;
14704;SDS011;7442;50.840;3.396;2023-02-05T18:46:56;4.87;;;2.30;;
14704;SDS011;7442;50.840;3.396;2023-02-05T18:49:43;5.78;;;2.25;;
14704;SDS011;7442;50.840;3.396;2023-02-05T18:52:29;5.67;;;2.08;;
14704;SDS011;7442;50.840;3.396;2023-02-05T18:55:16;5.15;;;2.37;;
14704;SDS011;7442;50.840;3.396;2023-02-05T18:58:03;4.25;;;1.98;;
14704;SDS011;7442;50.840;3.396;2023-02-05T19:00:49;5.90;;;2.35;;
14704;SDS011;7442;50.840;3.396;2023-02-05T19:03:36;5.10;;;2.50;;
14704;SDS011;7442;50.840;3.396;2023-02-05T19:06:24;6.12;;;2.55;;
14704;SDS011;7442;50.840;3.396;2023-02-05T19:09:10;7.40;;;2.42;;
14704;SDS011;7442;50.840;3.396;2023-02-05T19:11:57;7.70;;;2.30;;
14704;SDS011;7442;50.840;3.396;2023-02-05T19:14:43;5.33;;;2.10;;